Time;durP1;ratioP1;P1;durP2;ratioP2;P2;SDS_P1;SDS_P2;PMS_P1;PMS_P2;Temp;Humidity;BMP_temperature;BMP_pressure;BME280_temperature;BME280_humidity;BME280_pressure;Samples;Min_cycle;Max_cycle;Signal;HPM_P1;HPM_P2
2021/01/17 00:00:54;;;;;;;24.03;6.80;;;5.90;99.90;;;;;;5071690;28;20315;-81
2021/01/17 00:03:22;;;;;;;25.60;6.70;;;5.90;99.90;;;;;;5071448;28;20226;-81
2021/01/17 00:05:49;;;;;;;24.90;6.90;;;6.00;99.90;;;;;;5071848;28;20625;-81
2021/01/17 00:08:17;;;;;;;25.90;7.60;;;6.00;99.90;;;;;;5051359;28;20258;-82
2021/01/17 00:10:44;;;;;;;26.93;6.97;;;6.00;99.90;;;;;;5058671;28;20229;-81
2021/01/17 00:13:10;;;;;;;26.90;7.77;;;6.20;99.90;;;;;;5071688;28;20245;-81
2021/01/17 00:15:37;;;;;;;25.87;8.57;;;6.20;99.90;;;;;;5071952;28;20211;-81
2021/01/17 00:18:04;;;;;;;28.90;8.53;;;6.30;99.90;;;;;;5071379;28;20241;-81
2021/01/17 00:20:32;;;;;;;31.43;8.63;;;6.30;99.90;;;;;;5057356;28;20267;-81
2021/01/17 00:23:03;;;;;;;27.87;7.27;;;6.30;99.90;;;;;;5051351;28;20231;-81
2021/01/17 00:25:29;;;;;;;19.07;6.33;;;6.30;99.90;;;;;;5053197;28;20203;-81
2021/01/17 00:27:56;;;;;;;32.27;6.83;;;6.30;99.90;;;;;;5095048;28;20240;-81
2021/01/17 00:30:25;;;;;;;25.67;6.40;;;6.30;99.90;;;;;;5075804;28;20293;-81
2021/01/17 00:32:53;;;;;;;23.40;6.67;;;6.30;99.90;;;;;;5055435;28;20203;-81
2021/01/17 00:35:19;;;;;;;24.40;6.93;;;6.30;99.90;;;;;;5068893;28;20229;-81
2021/01/17 00:37:51;;;;;;;25.73;7.07;;;6.30;99.90;;;;;;5068105;28;20291;-81
2021/01/17 00:40:18;;;;;;;23.10;6.47;;;6.30;99.90;;;;;;5055099;28;20265;-81
2021/01/17 00:42:45;;;;;;;23.83;6.30;;;6.40;99.90;;;;;;5055019;28;20199;-80
2021/01/17 00:45:13;;;;;;;24.60;6.47;;;6.50;99.90;;;;;;5054994;28;20231;-81
2021/01/17 00:47:44;;;;;;;28.23;6.43;;;6.50;99.90;;;;;;5055110;28;20708;-81
2021/01/17 00:50:11;;;;;;;24.37;5.63;;;6.50;99.90;;;;;;5059351;28;20206;-81
2021/01/17 00:52:38;;;;;;;24.03;5.03;;;6.50;99.90;;;;;;5074099;28;20707;-81
2021/01/17 00:55:07;;;;;;;25.47;5.27;;;6.50;99.90;;;;;;5067358;28;20273;-81
2021/01/17 00:57:34;;;;;;;25.47;5.07;;;6.50;99.90;;;;;;5069225;28;20209;-81
2021/01/17 01:00:00;;;;;;;22.53;4.67;;;6.50;99.90;;;;;;5074634;28;20246;-81
2021/01/17 01:02:27;;;;;;;26.63;5.27;;;6.50;99.90;;;;;;5062374;28;20198;-81
2021/01/17 01:04:53;;;;;;;25.50;5.60;;;6.60;99.90;;;;;;5054709;28;20710;-81
2021/01/17 01:07:20;;;;;;;16.87;4.50;;;6.60;99.90;;;;;;5061205;28;20217;-81
2021/01/17 01:09:46;;;;;;;24.53;4.73;;;6.60;99.90;;;;;;5086579;28;20256;-81
2021/01/17 01:12:14;;;;;;;22.17;4.97;;;6.60;99.90;;;;;;5056417;28;20202;-81
2021/01/17 01:14:40;;;;;;;25.33;4.77;;;6.50;99.90;;;;;;5054330;28;20602;-82
2021/01/17 01:17:07;;;;;;;22.23;4.73;;;6.50;99.90;;;;;;5060465;28;20231;-81
2021/01/17 01:19:33;;;;;;;19.77;4.47;;;6.50;99.90;;;;;;5066168;28;20278;-82
2021/01/17 01:22:02;;;;;;;25.33;4.70;;;6.50;99.90;;;;;;5062760;28;20290;-82
2021/01/17 01:24:30;;;;;;;24.33;4.57;;;6.50;99.90;;;;;;5054485;28;20750;-81
2021/01/17 01:26:57;;;;;;;19.07;4.90;;;6.50;99.90;;;;;;5067241;28;20721;-81
2021/01/17 01:29:25;;;;;;;25.77;4.73;;;6.50;99.90;;;;;;5074295;28;20668;-82
2021/01/17 01:31:52;;;;;;;22.90;4.27;;;6.50;99.90;;;;;;5076139;28;20221;-81
2021/01/17 01:34:18;;;;;;;24.57;4.47;;;6.40;99.90;;;;;;5094378;28;20232;-81
2021/01/17 01:36:45;;;;;;;25.43;5.00;;;6.40;99.90;;;;;;5094020;28;20200;-81
2021/01/17 01:39:13;;;;;;;21.53;4.33;;;6.40;99.90;;;;;;5094247;28;20233;-81
2021/01/17 01:41:41;;;;;;;21.63;4.80;;;6.40;99.90;;;;;;5094200;28;20202;-81
2021/01/17 01:44:08;;;;;;;18.10;4.70;;;6.40;99.90;;;;;;5094086;28;20255;-81
2021/01/17 01:46:39;;;;;;;19.53;4.43;;;6.40;99.90;;;;;;5093777;28;20237;-82
2021/01/17 01:49:06;;;;;;;24.67;5.00;;;6.40;99.90;;;;;;5062347;28;20298;-82
2021/01/17 01:51:33;;;;;;;24.83;4.17;;;6.50;99.90;;;;;;5053429;28;20201;-82
2021/01/17 01:54:00;;;;;;;25.97;4.57;;;6.50;99.90;;;;;;5053623;28;20196;-82
2021/01/17 01:56:27;;;;;;;25.97;5.07;;;6.50;99.90;;;;;;5053701;28;20224;-81
2021/01/17 01:58:55;;;;;;;21.97;4.83;;;6.40;99.90;;;;;;5053619;28;20223;-81
2021/01/17 02:01:22;;;;;;;25.47;5.10;;;6.40;99.90;;;;;;5068292;28;20251;-81
2021/01/17 02:03:51;;;;;;;21.73;4.57;;;6.40;99.90;;;;;;5093329;28;20190;-81
2021/01/17 02:06:19;;;;;;;18.90;3.57;;;6.40;99.90;;;;;;5092423;28;20677;-81
2021/01/17 02:09:14;;;;;;;20.00;3.97;;;6.40;99.90;;;;;;5073275;28;20237;-81
2021/01/17 02:11:52;;;;;;;20.53;5.10;;;6.40;99.90;;;;;;5073322;28;20215;-81
2021/01/17 02:14:28;;;;;;;15.93;3.43;;;6.40;99.90;;;;;;5073052;28;20717;-81
2021/01/17 02:16:58;;;;;;;21.47;3.83;;;6.40;99.90;;;;;;5065478;28;20779;-81
2021/01/17 02:19:30;;;;;;;18.57;4.03;;;6.40;99.90;;;;;;5056567;28;20728;-82
2021/01/17 02:21:58;;;;;;;15.97;3.63;;;6.40;99.90;;;;;;5073162;28;20632;-82
2021/01/17 02:24:33;;;;;;;15.53;3.10;;;6.40;99.90;;;;;;5071763;28;20292;-81
2021/01/17 02:27:02;;;;;;;15.23;2.53;;;6.40;99.90;;;;;;5073043;28;20252;-81
2021/01/17 02:29:29;;;;;;;13.07;2.57;;;6.30;99.90;;;;;;5073083;28;20234;-82
2021/01/17 02:32:00;;;;;;;19.03;2.80;;;6.30;99.90;;;;;;5060135;28;20669;-81
2021/01/17 02:34:29;;;;;;;16.13;2.90;;;6.30;99.90;;;;;;5052620;28;20231;-81
2021/01/17 02:37:04;;;;;;;16.67;2.90;;;6.30;99.90;;;;;;5053129;28;20232;-81
2021/01/17 02:39:40;;;;;;;16.73;3.47;;;6.30;99.90;;;;;;5052542;28;20267;-81
2021/01/17 02:42:07;;;;;;;21.73;3.10;;;6.20;99.90;;;;;;5089663;28;20678;-81
2021/01/17 02:44:35;;;;;;;16.67;3.23;;;6.20;99.90;;;;;;5082750;28;20233;-81
2021/01/17 02:47:02;;;;;;;19.57;3.67;;;6.20;99.90;;;;;;5052682;28;20294;-81
2021/01/17 02:49:30;;;;;;;14.27;2.73;;;6.30;99.90;;;;;;5052240;28;20697;-82
2021/01/17 02:51:58;;;;;;;17.67;2.83;;;6.30;99.90;;;;;;5052598;28;20210;-81
2021/01/17 02:54:32;;;;;;;21.33;4.27;;;6.30;99.90;;;;;;5052680;28;20227;-81
2021/01/17 02:57:03;;;;;;;17.70;3.60;;;6.30;99.90;;;;;;5052606;28;20233;-82
2021/01/17 02:59:34;;;;;;;16.23;3.10;;;6.40;99.90;;;;;;5071944;28;20236;-82
2021/01/17 03:02:05;;;;;;;12.83;2.90;;;6.40;99.90;;;;;;5072279;28;20641;-81
2021/01/17 03:04:34;;;;;;;22.40;3.40;;;6.40;99.90;;;;;;5072741;28;20205;-81
2021/01/17 03:07:03;;;;;;;14.60;3.23;;;6.40;99.90;;;;;;5072534;28;20268;-82
2021/01/17 03:09:30;;;;;;;16.67;2.70;;;6.40;99.90;;;;;;5072790;28;20280;-81
2021/01/17 03:12:02;;;;;;;15.33;3.50;;;6.40;99.90;;;;;;5072418;28;20200;-81
2021/01/17 03:14:32;;;;;;;15.50;3.17;;;6.40;99.90;;;;;;5074735;28;20292;-82
2021/01/17 03:16:59;;;;;;;19.83;3.00;;;6.40;99.90;;;;;;5074226;28;20702;-81
2021/01/17 03:19:25;;;;;;;10.70;2.70;;;6.40;99.90;;;;;;5092178;28;20739;-81
2021/01/17 03:21:51;;;;;;;15.70;2.67;;;6.40;99.90;;;;;;5073890;28;20238;-81
2021/01/17 03:24:18;;;;;;;14.97;3.07;;;6.40;99.90;;;;;;5052345;28;20199;-81
2021/01/17 03:26:44;;;;;;;13.57;2.87;;;6.40;99.90;;;;;;5069373;28;20260;-81
2021/01/17 03:29:11;;;;;;;15.33;2.90;;;6.40;99.90;;;;;;5071099;28;20234;-81
2021/01/17 03:31:38;;;;;;;20.10;3.10;;;6.40;99.90;;;;;;5072216;28;20291;-81
2021/01/17 03:34:04;;;;;;;14.80;3.10;;;6.40;99.90;;;;;;5078480;28;20228;-81
2021/01/17 03:36:31;;;;;;;21.27;3.13;;;6.40;99.90;;;;;;5092697;28;20227;-81
2021/01/17 03:38:57;;;;;;;14.90;2.83;;;6.40;99.90;;;;;;5080119;28;20233;-81
2021/01/17 03:41:24;;;;;;;17.47;3.03;;;6.40;99.90;;;;;;5072192;28;20223;-81
2021/01/17 03:43:51;;;;;;;16.13;2.87;;;6.50;99.90;;;;;;5072510;28;20241;-81
2021/01/17 03:46:18;;;;;;;17.57;3.20;;;6.50;99.90;;;;;;5051813;28;20238;-81
2021/01/17 03:48:45;;;;;;;16.90;3.80;;;6.40;99.90;;;;;;5052239;28;20234;-82
2021/01/17 03:51:12;;;;;;;13.43;3.80;;;6.40;99.90;;;;;;5054018;28;20610;-81
2021/01/17 03:53:38;;;;;;;13.93;3.30;;;6.40;99.90;;;;;;5084444;28;20279;-81
2021/01/17 03:56:05;;;;;;;16.07;3.10;;;6.40;99.90;;;;;;5072120;28;20227;-82
2021/01/17 03:58:32;;;;;;;15.27;3.27;;;6.40;99.90;;;;;;5071964;28;20257;-82
2021/01/17 04:00:58;;;;;;;17.00;3.57;;;6.40;99.90;;;;;;5071808;28;20786;-82
2021/01/17 04:03:26;;;;;;;15.07;2.90;;;6.50;99.90;;;;;;5075915;28;20237;-81
2021/01/17 04:05:53;;;;;;;12.40;2.80;;;6.50;99.90;;;;;;5075479;28;20216;-82
2021/01/17 04:08:19;;;;;;;14.90;2.97;;;6.50;99.90;;;;;;5075847;28;20685;-82
2021/01/17 04:10:46;;;;;;;11.97;2.30;;;6.50;99.90;;;;;;5075947;28;20195;-81
2021/01/17 04:13:12;;;;;;;17.87;2.37;;;6.60;99.90;;;;;;5075406;28;20634;-82
2021/01/17 04:15:39;;;;;;;19.93;2.97;;;6.60;99.90;;;;;;5075255;28;20231;-81
2021/01/17 04:18:05;;;;;;;10.27;2.60;;;6.60;99.90;;;;;;5068452;28;20230;-81
2021/01/17 04:20:32;;;;;;;12.87;2.23;;;6.50;99.90;;;;;;5075402;28;20359;-82
2021/01/17 04:23:01;;;;;;;8.40;2.33;;;6.50;99.90;;;;;;5074983;28;20203;-82
2021/01/17 04:25:28;;;;;;;12.40;2.17;;;6.50;99.90;;;;;;5075568;28;20282;-81
2021/01/17 04:27:55;;;;;;;17.37;2.70;;;6.40;99.90;;;;;;5075211;28;20662;-81
2021/01/17 04:30:22;;;;;;;13.53;2.30;;;6.50;99.90;;;;;;5058662;28;20234;-81
2021/01/17 04:32:49;;;;;;;16.80;2.83;;;6.50;99.90;;;;;;5055256;28;20682;-82
2021/01/17 04:35:15;;;;;;;11.70;2.30;;;6.40;99.90;;;;;;5055042;28;20246;-82
2021/01/17 04:37:42;;;;;;;11.47;2.57;;;6.40;99.90;;;;;;5055618;28;20387;-82
2021/01/17 04:40:10;;;;;;;13.67;2.67;;;6.40;99.90;;;;;;5055185;28;20717;-81
2021/01/17 04:42:40;;;;;;;12.97;2.50;;;6.40;99.90;;;;;;5055431;28;20231;-82
2021/01/17 04:45:09;;;;;;;15.27;2.60;;;6.40;99.90;;;;;;5054836;28;20656;-82
2021/01/17 04:47:37;;;;;;;14.53;2.57;;;6.40;99.90;;;;;;5055181;28;20213;-82
2021/01/17 04:50:06;;;;;;;16.53;2.53;;;6.50;99.90;;;;;;5054679;28;20625;-81
2021/01/17 04:52:41;;;;;;;10.73;2.43;;;6.50;99.90;;;;;;5054798;28;20235;-81
2021/01/17 04:55:10;;;;;;;12.83;2.30;;;6.50;99.90;;;;;;5057825;28;20741;-82
2021/01/17 04:57:45;;;;;;;11.20;2.63;;;6.50;99.90;;;;;;5074743;28;20231;-82
2021/01/17 05:00:16;;;;;;;15.17;2.50;;;6.50;99.90;;;;;;5074690;28;20386;-82
2021/01/17 05:02:44;;;;;;;14.10;2.97;;;6.40;99.90;;;;;;5074820;28;20234;-81
2021/01/17 05:05:14;;;;;;;17.03;2.87;;;6.40;99.90;;;;;;5074424;28;20712;-81
2021/01/17 05:07:49;;;;;;;11.37;2.50;;;6.40;99.90;;;;;;5074683;28;20222;-80
2021/01/17 05:10:33;;;;;;;15.00;2.63;;;6.40;99.90;;;;;;5074709;28;20195;-81
2021/01/17 05:13:08;;;;;;;16.17;2.50;;;6.40;99.90;;;;;;5073727;28;20679;-81
2021/01/17 05:15:37;;;;;;;11.50;2.60;;;6.40;99.90;;;;;;5074598;28;20194;-81
2021/01/17 05:18:04;;;;;;;10.97;2.20;;;6.40;99.90;;;;;;5073922;28;20242;-81
2021/01/17 05:20:31;;;;;;;14.33;2.70;;;6.40;99.90;;;;;;5074460;28;20269;-81
2021/01/17 05:22:58;;;;;;;11.87;2.60;;;6.40;99.90;;;;;;5074361;28;20293;-81
2021/01/17 05:25:30;;;;;;;15.40;3.13;;;6.40;99.90;;;;;;5074008;28;20242;-81
2021/01/17 05:27:58;;;;;;;10.13;2.50;;;6.40;99.90;;;;;;5073874;28;20235;-82
2021/01/17 05:30:25;;;;;;;16.53;2.77;;;6.40;99.90;;;;;;5074135;28;20204;-82
2021/01/17 05:32:53;;;;;;;15.70;2.97;;;6.40;99.90;;;;;;5074319;28;20227;-82
2021/01/17 05:35:21;;;;;;;14.10;2.53;;;6.40;99.90;;;;;;5074294;28;20234;-82
2021/01/17 05:37:49;;;;;;;11.40;2.20;;;6.40;99.90;;;;;;5074354;28;20233;-81
2021/01/17 05:40:16;;;;;;;12.37;2.47;;;6.30;99.90;;;;;;5073819;28;20306;-82
2021/01/17 05:42:44;;;;;;;17.10;3.13;;;6.30;99.90;;;;;;5073849;28;20286;-81
2021/01/17 05:45:14;;;;;;;12.97;2.50;;;6.30;99.90;;;;;;5074048;28;21051;-81
2021/01/17 05:47:41;;;;;;;13.47;2.77;;;6.30;99.90;;;;;;5061590;28;20235;-82
2021/01/17 05:50:10;;;;;;;11.00;2.57;;;6.30;99.90;;;;;;5054003;28;20242;-81
2021/01/17 05:52:37;;;;;;;15.47;2.60;;;6.30;99.90;;;;;;5053883;28;20241;-81
2021/01/17 05:55:04;;;;;;;10.20;2.27;;;6.30;99.90;;;;;;5056457;28;20238;-81
2021/01/17 05:57:33;;;;;;;15.23;2.27;;;6.30;99.90;;;;;;5073496;28;20261;-81
2021/01/17 06:00:01;;;;;;;12.63;2.60;;;6.30;99.90;;;;;;5073701;28;20230;-81
2021/01/17 06:02:29;;;;;;;11.27;2.10;;;6.30;99.90;;;;;;5072982;28;20202;-81
2021/01/17 06:04:57;;;;;;;12.83;2.03;;;6.30;99.90;;;;;;5073738;28;20248;-82
2021/01/17 06:07:26;;;;;;;11.03;2.20;;;6.30;99.90;;;;;;5073567;28;20266;-81
2021/01/17 06:10:00;;;;;;;10.43;2.13;;;6.30;99.90;;;;;;5073392;28;20253;-81
2021/01/17 06:12:31;;;;;;;13.13;2.00;;;6.30;99.90;;;;;;5073197;28;20244;-81
2021/01/17 06:15:08;;;;;;;13.10;2.37;;;6.30;99.90;;;;;;5073592;28;20228;-82
2021/01/17 06:17:35;;;;;;;11.87;2.00;;;6.30;99.90;;;;;;5072857;28;20640;-81
2021/01/17 06:20:05;;;;;;;16.83;2.10;;;6.30;99.90;;;;;;5072709;28;20648;-81
2021/01/17 06:22:32;;;;;;;11.60;2.23;;;6.30;99.90;;;;;;5073102;28;20212;-82
2021/01/17 06:25:00;;;;;;;15.30;3.40;;;6.30;99.90;;;;;;5072087;28;20235;-82
2021/01/17 06:27:28;;;;;;;13.40;3.53;;;6.30;99.90;;;;;;5073227;28;20289;-82
2021/01/17 06:29:55;;;;;;;16.33;3.60;;;6.20;99.90;;;;;;5073092;28;20223;-81
2021/01/17 06:32:25;;;;;;;14.50;2.73;;;6.20;99.90;;;;;;5073138;28;20221;-82
2021/01/17 06:34:53;;;;;;;15.73;2.70;;;6.20;99.90;;;;;;5053738;28;20860;-81
2021/01/17 06:37:21;;;;;;;16.53;2.67;;;6.20;99.90;;;;;;5053326;28;20241;-82
2021/01/17 06:39:49;;;;;;;15.57;2.53;;;6.20;99.90;;;;;;5052483;28;20238;-81
2021/01/17 06:42:17;;;;;;;13.77;2.97;;;6.30;99.90;;;;;;5053188;28;20241;-81
2021/01/17 06:44:45;;;;;;;16.67;2.80;;;6.20;99.90;;;;;;5052573;28;20673;-82
2021/01/17 06:47:16;;;;;;;14.30;2.80;;;6.20;99.90;;;;;;5052809;28;20677;-82
2021/01/17 06:49:44;;;;;;;14.87;2.33;;;6.10;99.90;;;;;;5052625;28;20250;-81
2021/01/17 06:52:11;;;;;;;10.93;2.30;;;6.00;99.90;;;;;;5052774;28;20242;-81
2021/01/17 06:54:39;;;;;;;13.73;2.73;;;5.90;99.90;;;;;;5053009;28;20323;-81
2021/01/17 06:57:07;;;;;;;13.70;2.33;;;5.80;99.90;;;;;;5072687;28;20243;-81
2021/01/17 06:59:35;;;;;;;13.30;2.43;;;5.60;99.90;;;;;;5072590;28;20227;-81
2021/01/17 07:02:38;;;;;;;16.07;2.93;;;5.50;99.90;;;;;;5062855;28;20215;-81
2021/01/17 07:05:24;;;;;;;11.67;2.63;;;5.30;99.90;;;;;;5062779;28;20234;-81
2021/01/17 07:08:05;;;;;;;15.33;3.13;;;5.20;99.90;;;;;;5065274;28;20263;-81
2021/01/17 07:10:40;;;;;;;14.27;3.00;;;5.10;99.90;;;;;;5070091;28;20280;-81
2021/01/17 07:13:08;;;;;;;16.63;2.53;;;5.00;99.90;;;;;;5069878;28;20276;-80
2021/01/17 07:15:36;;;;;;;20.73;2.97;;;4.90;99.90;;;;;;5070232;28;20235;-81
2021/01/17 07:18:05;;;;;;;17.90;2.90;;;4.80;99.90;;;;;;5067894;28;20236;-80
2021/01/17 07:20:34;;;;;;;15.33;3.10;;;4.70;99.90;;;;;;5049898;28;20312;-80
2021/01/17 07:23:02;;;;;;;14.07;3.33;;;4.60;99.90;;;;;;5049823;28;20243;-80
2021/01/17 07:25:30;;;;;;;21.27;4.17;;;4.50;99.90;;;;;;5050163;28;20232;-80
2021/01/17 07:28:10;;;;;;;17.60;4.40;;;4.50;99.90;;;;;;5051356;28;20238;-80
2021/01/17 07:30:48;;;;;;;24.00;7.40;;;4.50;99.90;;;;;;5070084;28;20306;-80
2021/01/17 07:33:17;;;;;;;23.47;7.63;;;4.40;99.90;;;;;;5070088;28;20303;-81
2021/01/17 07:35:46;;;;;;;19.87;7.00;;;4.40;99.90;;;;;;5071537;28;20242;-80
2021/01/17 07:38:16;;;;;;;23.00;7.13;;;4.30;99.90;;;;;;5074030;28;20245;-80
2021/01/17 07:40:52;;;;;;;18.30;6.87;;;4.30;99.90;;;;;;5071641;28;20262;-81
2021/01/17 07:43:24;;;;;;;21.63;6.20;;;4.30;99.90;;;;;;5078282;28;20194;-81
2021/01/17 07:45:52;;;;;;;16.97;5.40;;;4.30;99.90;;;;;;5076440;28;20678;-80
2021/01/17 07:48:19;;;;;;;17.17;5.53;;;4.20;99.90;;;;;;5076097;28;20238;-80
2021/01/17 07:50:49;;;;;;;22.97;5.87;;;4.20;99.90;;;;;;5075668;28;20671;-80
2021/01/17 07:53:27;;;;;;;24.50;10.30;;;4.10;99.90;;;;;;5108533;28;20573;-80
2021/01/17 07:56:02;;;;;;;29.37;11.73;;;4.00;99.90;;;;;;5076061;28;20238;-80
2021/01/17 07:58:32;;;;;;;32.07;8.00;;;4.00;99.90;;;;;;5075908;28;20198;-81
2021/01/17 08:01:00;;;;;;;21.33;7.30;;;4.10;99.90;;;;;;5075722;28;20226;-80
2021/01/17 08:03:27;;;;;;;26.40;6.90;;;4.10;99.90;;;;;;5075779;28;20578;-80
2021/01/17 08:05:56;;;;;;;21.80;6.57;;;4.10;99.90;;;;;;5075654;28;20289;-80
2021/01/17 08:08:49;;;;;;;18.60;6.63;;;4.10;99.90;;;;;;5075309;28;20227;-80
2021/01/17 08:11:41;;;;;;;24.70;10.47;;;4.20;99.90;;;;;;5075530;28;20230;-80
2021/01/17 08:14:23;;;;;;;28.37;10.63;;;4.30;99.90;;;;;;5072891;28;20574;-79
2021/01/17 08:17:08;;;;;;;23.90;11.13;;;4.50;99.90;;;;;;5075852;28;20559;-77
2021/01/17 08:19:40;;;;;;;29.13;11.33;;;4.70;99.90;;;;;;5074730;28;20235;-77
2021/01/17 08:22:44;;;;;;;22.20;9.07;;;4.90;99.90;;;;;;5072676;28;20533;-77
2021/01/17 08:25:42;;;;;;;;;;;;;;;;;;;;;
2021/01/17 08:28:40;;;;;;;16.97;6.50;;;5.40;99.90;;;;;;5076265;28;20204;-80
2021/01/17 08:31:35;;;;;;;23.60;8.03;;;5.80;99.90;;;;;;5075361;28;20199;-81
2021/01/17 08:34:13;;;;;;;13.23;4.97;;;6.20;99.90;;;;;;5075032;28;20239;-80
2021/01/17 08:36:41;;;;;;;17.93;6.03;;;6.70;99.90;;;;;;5075285;28;20195;-79
2021/01/17 08:39:08;;;;;;;19.73;8.97;;;7.10;99.90;;;;;;5075030;28;20698;-81
2021/01/17 08:41:40;;;;;;;20.93;8.73;;;7.50;99.90;;;;;;5074802;28;20266;-81
2021/01/17 08:44:12;;;;;;;25.47;11.80;;;8.00;99.90;;;;;;5094188;28;20194;-80
2021/01/17 08:46:42;;;;;;;25.10;10.60;;;8.50;99.90;;;;;;5087057;28;20683;-81
2021/01/17 08:49:11;;;;;;;23.57;10.20;;;9.10;99.90;;;;;;5071679;28;20199;-80
2021/01/17 08:51:38;;;;;;;19.13;8.20;;;9.60;99.90;;;;;;5074670;28;20199;-79
2021/01/17 08:54:25;;;;;;;14.60;5.70;;;9.90;99.90;;;;;;5074561;28;20603;-82
2021/01/17 08:56:54;;;;;;;17.47;4.50;;;10.50;99.90;;;;;;5075066;28;20211;-79
2021/01/17 08:59:37;;;;;;;16.70;4.93;;;10.90;99.90;;;;;;5057865;28;20207;-82
2021/01/17 09:02:04;;;;;;;16.13;5.60;;;11.30;99.90;;;;;;5083170;28;20222;-82
2021/01/17 09:04:32;;;;;;;14.13;5.90;;;11.30;99.90;;;;;;5086406;28;20248;-81
2021/01/17 09:06:58;;;;;;;16.03;5.87;;;11.70;99.90;;;;;;5077247;28;20613;-78
2021/01/17 09:09:25;;;;;;;16.53;6.50;;;12.10;99.90;;;;;;5094613;28;20237;-78
2021/01/17 09:11:53;;;;;;;14.00;5.67;;;12.10;99.90;;;;;;5088768;28;20733;-79
2021/01/17 09:14:26;;;;;;;15.60;5.47;;;12.00;99.90;;;;;;5056613;28;20282;-79
2021/01/17 09:17:00;;;;;;;15.43;5.20;;;11.90;99.90;;;;;;5055254;28;20290;-79
2021/01/17 09:19:32;;;;;;;16.50;6.60;;;11.10;99.90;;;;;;5061799;28;20628;-77
2021/01/17 09:22:00;;;;;;;18.77;6.67;;;11.00;99.90;;;;;;5054411;28;20315;-80
2021/01/17 09:24:28;;;;;;;13.80;6.13;;;11.40;99.90;;;;;;5077521;28;20202;-79
2021/01/17 09:26:57;;;;;;;16.60;6.50;;;12.10;99.90;;;;;;5094926;28;20221;-79
2021/01/17 09:29:27;;;;;;;18.53;8.53;;;12.70;99.90;;;;;;5075120;28;20356;-79
2021/01/17 09:31:55;;;;;;;20.50;8.27;;;12.50;99.90;;;;;;5074130;28;20682;-80
2021/01/17 09:34:23;;;;;;;15.30;5.30;;;12.50;99.90;;;;;;5073898;28;20286;-79
2021/01/17 09:36:50;;;;;;;13.13;5.70;;;12.60;99.90;;;;;;5072809;28;20242;-79
2021/01/17 09:39:29;;;;;;;16.15;5.45;;;12.70;99.90;;;;;;5075151;28;20248;-79
2021/01/17 09:41:57;;;;;;;14.48;5.80;;;12.80;99.90;;;;;;5074044;28;20230;-79
2021/01/17 09:44:23;;;;;;;20.03;5.63;;;13.30;99.90;;;;;;5073897;28;20441;-79
2021/01/17 09:46:50;;;;;;;18.20;5.47;;;13.10;99.90;;;;;;5074841;28;20236;-80
2021/01/17 09:49:21;;;;;;;14.93;4.23;;;13.00;99.90;;;;;;5061623;28;20578;-79
2021/01/17 09:51:48;;;;;;;14.80;4.53;;;13.20;99.90;;;;;;5056410;28;20226;-80
2021/01/17 09:54:15;;;;;;;13.40;4.37;;;13.30;99.90;;;;;;5075839;28;20281;-80
2021/01/17 09:56:42;;;;;;;12.97;3.40;;;13.40;99.90;;;;;;5070534;28;20618;-79
2021/01/17 09:59:17;;;;;;;11.47;3.30;;;13.40;99.90;;;;;;5071544;28;20229;-79
2021/01/17 10:01:45;;;;;;;9.47;3.07;;;13.40;99.90;;;;;;5069955;28;20226;-79
2021/01/17 10:04:26;;;;;;;14.80;3.63;;;13.50;99.90;;;;;;5090172;28;20674;-79
2021/01/17 10:06:54;;;;;;;11.33;2.97;;;13.60;99.90;;;;;;5063812;28;20678;-79
2021/01/17 10:09:21;;;;;;;12.17;2.50;;;13.80;99.90;;;;;;5075819;28;20284;-78
2021/01/17 10:11:54;;;;;;;15.97;2.90;;;13.10;99.90;;;;;;5061466;28;20227;-80
2021/01/17 10:14:26;;;;;;;12.80;2.90;;;13.30;99.90;;;;;;5054480;28;20640;-80
2021/01/17 10:16:54;;;;;;;14.30;2.57;;;13.80;99.90;;;;;;5071268;28;20609;-80
2021/01/17 10:19:28;;;;;;;12.63;2.30;;;13.50;99.90;;;;;;5072457;28;20752;-80
2021/01/17 10:21:55;;;;;;;13.53;2.67;;;13.70;99.90;;;;;;5066399;28;20306;-80
2021/01/17 10:24:26;;;;;;;10.80;2.63;;;13.80;99.90;;;;;;5067902;28;20235;-78
2021/01/17 10:26:55;;;;;;;11.10;2.37;;;13.30;99.90;;;;;;5059168;28;20276;-79
2021/01/17 10:29:24;;;;;;;11.90;3.20;;;13.70;99.90;;;;;;5067242;28;20250;-78
2021/01/17 10:32:09;;;;;;;11.03;2.87;;;13.90;99.90;;;;;;5054374;28;20234;-79
2021/01/17 10:34:39;;;;;;;11.23;2.80;;;13.80;99.90;;;;;;5053167;28;20231;-78
2021/01/17 10:37:08;;;;;;;10.07;2.50;;;13.80;99.90;;;;;;5056270;28;20698;-80
2021/01/17 10:39:37;;;;;;;10.83;2.40;;;13.90;99.90;;;;;;5065285;28;20223;-77
2021/01/17 10:42:12;;;;;;;7.47;2.10;;;13.90;99.90;;;;;;5092412;28;20264;-77
2021/01/17 10:44:50;;;;;;;9.10;2.13;;;13.30;99.90;;;;;;5092550;28;20541;-76
2021/01/17 10:47:31;;;;;;;11.40;2.43;;;13.60;99.90;;;;;;5072652;28;20234;-76
2021/01/17 10:50:03;;;;;;;10.20;1.90;;;13.40;99.90;;;;;;5072608;28;20203;-76
2021/01/17 10:52:33;;;;;;;12.47;2.10;;;13.20;99.90;;;;;;5053459;28;20224;-77
2021/01/17 10:55:04;;;;;;;8.77;2.13;;;13.20;99.90;;;;;;5067138;28;20737;-77
2021/01/17 10:57:33;;;;;;;7.67;1.97;;;13.70;99.90;;;;;;5056520;28;20245;-76
2021/01/17 11:00:06;;;;;;;10.07;2.23;;;14.20;99.90;;;;;;5055441;28;20230;-77
2021/01/17 11:02:32;;;;;;;10.07;2.37;;;14.00;99.90;;;;;;5072610;28;20254;-83
2021/01/17 11:04:59;;;;;;;7.97;1.83;;;13.40;99.90;;;;;;5072809;28;20666;-83
2021/01/17 11:07:28;;;;;;;8.43;2.00;;;14.00;99.90;;;;;;5062931;28;20227;-83
2021/01/17 11:09:55;;;;;;;10.77;2.37;;;13.70;99.90;;;;;;5051982;28;20239;-83
2021/01/17 11:12:36;;;;;;;10.97;2.20;;;14.00;99.90;;;;;;5052760;28;20236;-83
2021/01/17 11:15:11;;;;;;;8.57;2.00;;;14.00;99.90;;;;;;5052204;28;20238;-82
2021/01/17 11:17:37;;;;;;;13.63;2.07;;;14.00;99.90;;;;;;5064886;28;20225;-82
2021/01/17 11:20:07;;;;;;;10.80;1.90;;;14.40;99.90;;;;;;5072892;28;20267;-82
2021/01/17 11:22:35;;;;;;;8.90;2.20;;;14.00;99.90;;;;;;5072525;28;20268;-82
2021/01/17 11:25:02;;;;;;;8.57;2.03;;;13.60;99.90;;;;;;5072370;28;20762;-82
2021/01/17 11:27:36;;;;;;;8.73;1.50;;;13.40;99.90;;;;;;5072366;28;20238;-82
2021/01/17 11:30:04;;;;;;;9.83;2.00;;;12.80;99.90;;;;;;5072309;28;20234;-81
2021/01/17 11:32:34;;;;;;;8.60;1.60;;;12.50;99.90;;;;;;5072312;28;20219;-82
2021/01/17 11:35:01;;;;;;;9.97;2.10;;;13.20;99.90;;;;;;5072408;28;20572;-83
2021/01/17 11:37:34;;;;;;;10.40;1.50;;;12.80;99.90;;;;;;5072407;28;20235;-83
2021/01/17 11:40:06;;;;;;;8.10;2.10;;;13.20;99.90;;;;;;5072271;28;20227;-82
2021/01/17 11:42:33;;;;;;;10.60;1.73;;;13.50;99.90;;;;;;5072417;28;20310;-83
2021/01/17 11:45:02;;;;;;;11.47;1.67;;;12.60;99.90;;;;;;5071780;28;20235;-83
2021/01/17 11:47:28;;;;;;;9.50;2.03;;;12.10;99.90;;;;;;5072772;28;20207;-83
2021/01/17 11:49:55;;;;;;;10.93;1.97;;;12.30;99.90;;;;;;5072236;28;20249;-83
2021/01/17 11:52:22;;;;;;;10.07;1.50;;;12.10;99.90;;;;;;5080420;28;20230;-83
2021/01/17 11:54:48;;;;;;;8.13;1.27;;;12.50;99.90;;;;;;5083821;28;20611;-83
2021/01/17 11:57:15;;;;;;;9.50;1.73;;;12.70;99.90;;;;;;5072280;28;20234;-82
2021/01/17 11:59:41;;;;;;;8.97;1.90;;;12.70;99.90;;;;;;5071759;28;20760;-83
2021/01/17 12:02:17;;;;;;;12.23;1.70;;;11.60;99.90;;;;;;5064863;28;20318;-83
2021/01/17 12:04:45;;;;;;;8.13;2.10;;;11.40;99.90;;;;;;5051981;28;20556;-83
2021/01/17 12:07:13;;;;;;;9.43;1.70;;;10.90;99.90;;;;;;5051739;28;20188;-83
2021/01/17 12:09:40;;;;;;;8.27;1.60;;;10.60;99.90;;;;;;5052030;28;20211;-83
2021/01/17 12:12:11;;;;;;;9.47;2.17;;;10.30;99.90;;;;;;5052093;28;20239;-83
2021/01/17 12:14:38;;;;;;;11.07;2.10;;;10.50;99.90;;;;;;5051532;28;20235;-83
2021/01/17 12:17:06;;;;;;;7.77;1.60;;;10.30;99.90;;;;;;5074883;28;20260;-83
2021/01/17 12:19:34;;;;;;;10.23;1.90;;;10.60;99.90;;;;;;5076780;28;20242;-83
2021/01/17 12:22:03;;;;;;;9.13;1.80;;;10.80;99.90;;;;;;5071573;28;20223;-83
2021/01/17 12:24:30;;;;;;;6.67;1.70;;;10.50;99.90;;;;;;5075764;28;20227;-83
2021/01/17 12:26:57;;;;;;;10.87;1.80;;;10.20;99.90;;;;;;5074471;28;20230;-83
2021/01/17 12:29:24;;;;;;;9.83;1.40;;;10.10;99.90;;;;;;5055296;28;20196;-84
2021/01/17 12:31:52;;;;;;;6.77;1.77;;;10.00;99.90;;;;;;5055379;28;20228;-83
2021/01/17 12:34:19;;;;;;;12.90;2.47;;;10.60;99.90;;;;;;5055192;28;20231;-83
2021/01/17 12:36:47;;;;;;;8.03;1.73;;;11.50;99.90;;;;;;5055468;28;20293;-83
2021/01/17 12:39:18;;;;;;;10.73;2.07;;;12.40;99.90;;;;;;5054958;28;20240;-83
2021/01/17 12:41:47;;;;;;;10.17;1.77;;;13.20;99.90;;;;;;5054704;28;20259;-83
2021/01/17 12:44:15;;;;;;;9.77;1.80;;;13.40;99.90;;;;;;5055121;28;20196;-80
2021/01/17 12:46:41;;;;;;;7.57;1.70;;;13.50;99.90;;;;;;5055240;28;20287;-83
2021/01/17 12:49:08;;;;;;;10.37;1.90;;;13.10;99.90;;;;;;5073767;28;20647;-83
2021/01/17 12:51:35;;;;;;;12.43;2.40;;;12.70;99.90;;;;;;5075162;28;20235;-83
2021/01/17 12:54:02;;;;;;;8.93;1.40;;;12.70;99.90;;;;;;5074774;28;20693;-81
2021/01/17 12:56:28;;;;;;;5.03;1.27;;;12.40;99.90;;;;;;5074349;28;20235;-83
2021/01/17 12:58:56;;;;;;;7.13;1.30;;;11.70;99.90;;;;;;5074194;28;20289;-83